sensor_id;sensor_type;location;lat;lon;timestamp;temperature;humidity
18160;DHT22;9205;52.032;4.314;2022-09-03T00:02:20;19.70;1.00
18160;DHT22;9205;52.032;4.314;2022-09-03T00:04:56;19.60;1.00
18160;DHT22;9205;52.032;4.314;2022-09-03T00:07:34;19.60;1.00
18160;DHT22;9205;52.032;4.314;2022-09-03T00:10:10;19.60;1.00
18160;DHT22;9205;52.032;4.314;2022-09-03T00:12:42;19.50;1.00
18160;DHT22;9205;52.032;4.314;2022-09-03T00:15:13;19.50;1.00
18160;DHT22;9205;52.032;4.314;2022-09-03T00:17:47;19.50;1.00
18160;DHT22;9205;52.032;4.314;2022-09-03T00:20:23;19.50;1.00
18160;DHT22;9205;52.032;4.314;2022-09-03T00:22:57;19.50;1.00
18160;DHT22;9205;52.032;4.314;2022-09-03T00:25:33;19.50;1.00
18160;DHT22;9205;52.032;4.314;2022-09-03T00:28:07;19.50;1.00
18160;DHT22;9205;52.032;4.314;2022-09-03T00:30:40;19.40;1.00
18160;DHT22;9205;52.032;4.314;2022-09-03T00:33:11;19.40;1.00
18160;DHT22;9205;52.032;4.314;2022-09-03T00:35:48;19.40;1.00
18160;DHT22;9205;52.032;4.314;2022-09-03T00:38:20;19.40;1.00
18160;DHT22;9205;52.032;4.314;2022-09-03T00:41:00;19.40;1.00
18160;DHT22;9205;52.032;4.314;2022-09-03T00:43:53;19.40;1.00
18160;DHT22;9205;52.032;4.314;2022-09-03T00:46:38;19.40;1.00
18160;DHT22;9205;52.032;4.314;2022-09-03T00:49:22;19.30;1.00
18160;DHT22;9205;52.032;4.314;2022-09-03T00:52:04;19.30;1.70
18160;DHT22;9205;52.032;4.314;2022-09-03T00:54:59;19.40;4.80
18160;DHT22;9205;52.032;4.314;2022-09-03T00:57:40;19.30;5.70
18160;DHT22;9205;52.032;4.314;2022-09-03T01:00:17;19.30;7.90
18160;DHT22;9205;52.032;4.314;2022-09-03T01:02:55;19.30;9.70
18160;DHT22;9205;52.032;4.314;2022-09-03T01:05:42;19.20;10.50
18160;DHT22;9205;52.032;4.314;2022-09-03T01:08:38;19.30;13.30
18160;DHT22;9205;52.032;4.314;2022-09-03T01:11:21;19.20;14.30
18160;DHT22;9205;52.032;4.314;2022-09-03T01:13:56;19.20;15.90
18160;DHT22;9205;52.032;4.314;2022-09-03T01:16:40;19.20;18.30
18160;DHT22;9205;52.032;4.314;2022-09-03T01:19:33;19.10;19.40
18160;DHT22;9205;52.032;4.314;2022-09-03T01:22:38;19.10;21.90
18160;DHT22;9205;52.032;4.314;2022-09-03T01:25:36;19.00;22.90
18160;DHT22;9205;52.032;4.314;2022-09-03T01:28:22;19.10;25.80
18160;DHT22;9205;52.032;4.314;2022-09-03T01:31:05;18.90;26.70
18160;DHT22;9205;52.032;4.314;2022-09-03T01:33:43;18.90;28.20
18160;DHT22;9205;52.032;4.314;2022-09-03T01:36:21;18.90;31.60
18160;DHT22;9205;52.032;4.314;2022-09-03T01:38:59;18.90;33.80
18160;DHT22;9205;52.032;4.314;2022-09-03T01:41:41;18.90;35.90
18160;DHT22;9205;52.032;4.314;2022-09-03T01:44:46;18.90;38.10
18160;DHT22;9205;52.032;4.314;2022-09-03T01:47:48;18.90;40.70
18160;DHT22;9205;52.032;4.314;2022-09-03T01:50:38;18.80;43.70
18160;DHT22;9205;52.032;4.314;2022-09-03T01:53:22;18.80;45.60
18160;DHT22;9205;52.032;4.314;2022-09-03T01:56:16;18.80;47.80
18160;DHT22;9205;52.032;4.314;2022-09-03T01:58:55;18.70;49.90
18160;DHT22;9205;52.032;4.314;2022-09-03T02:01:36;18.70;52.50
18160;DHT22;9205;52.032;4.314;2022-09-03T02:04:16;18.60;53.50
18160;DHT22;9205;52.032;4.314;2022-09-03T02:06:46;18.50;54.80
18160;DHT22;9205;52.032;4.314;2022-09-03T02:09:14;18.50;57.10
18160;DHT22;9205;52.032;4.314;2022-09-03T02:11:43;18.50;59.50
18160;DHT22;9205;52.032;4.314;2022-09-03T02:14:12;18.50;62.10
18160;DHT22;9205;52.032;4.314;2022-09-03T02:16:42;18.50;65.50
18160;DHT22;9205;52.032;4.314;2022-09-03T02:19:12;18.50;67.60
18160;DHT22;9205;52.032;4.314;2022-09-03T02:21:46;18.50;69.40
18160;DHT22;9205;52.032;4.314;2022-09-03T02:24:17;18.50;71.60
18160;DHT22;9205;52.032;4.314;2022-09-03T02:26:45;18.50;74.00
18160;DHT22;9205;52.032;4.314;2022-09-03T02:29:13;18.50;76.90
18160;DHT22;9205;52.032;4.314;2022-09-03T02:31:43;18.40;79.00
18160;DHT22;9205;52.032;4.314;2022-09-03T02:34:11;18.40;80.20
18160;DHT22;9205;52.032;4.314;2022-09-03T02:36:41;18.40;82.50
18160;DHT22;9205;52.032;4.314;2022-09-03T02:39:11;18.40;84.20
18160;DHT22;9205;52.032;4.314;2022-09-03T02:41:39;18.40;88.00
18160;DHT22;9205;52.032;4.314;2022-09-03T02:44:19;18.30;87.80
18160;DHT22;9205;52.032;4.314;2022-09-03T02:46:57;18.30;89.40
18160;DHT22;9205;52.032;4.314;2022-09-03T02:49:25;18.30;90.80
18160;DHT22;9205;52.032;4.314;2022-09-03T02:51:57;18.30;91.50
18160;DHT22;9205;52.032;4.314;2022-09-03T02:54:27;18.30;92.20
18160;DHT22;9205;52.032;4.314;2022-09-03T02:56:56;18.20;92.90
18160;DHT22;9205;52.032;4.314;2022-09-03T02:59:23;18.20;93.70
18160;DHT22;9205;52.032;4.314;2022-09-03T03:01:54;18.20;94.20
18160;DHT22;9205;52.032;4.314;2022-09-03T03:04:21;18.20;95.00
18160;DHT22;9205;52.032;4.314;2022-09-03T03:06:49;18.10;95.60
18160;DHT22;9205;52.032;4.314;2022-09-03T03:09:16;18.10;96.30
18160;DHT22;9205;52.032;4.314;2022-09-03T03:11:43;18.10;96.90
18160;DHT22;9205;52.032;4.314;2022-09-03T03:14:11;18.10;97.80
18160;DHT22;9205;52.032;4.314;2022-09-03T03:16:38;18.10;98.50
18160;DHT22;9205;52.032;4.314;2022-09-03T03:19:08;18.10;99.10
18160;DHT22;9205;52.032;4.314;2022-09-03T03:21:35;18.10;99.70
18160;DHT22;9205;52.032;4.314;2022-09-03T03:24:03;18.00;99.90
18160;DHT22;9205;52.032;4.314;2022-09-03T03:26:31;18.00;99.90
18160;DHT22;9205;52.032;4.314;2022-09-03T03:29:00;18.00;99.90
18160;DHT22;9205;52.032;4.314;2022-09-03T03:31:29;18.00;99.90
18160;DHT22;9205;52.032;4.314;2022-09-03T03:33:59;18.00;99.90
18160;DHT22;9205;52.032;4.314;2022-09-03T03:36:31;18.00;99.90
18160;DHT22;9205;52.032;4.314;2022-09-03T03:39:00;18.00;99.90
18160;DHT22;9205;52.032;4.314;2022-09-03T03:41:28;18.00;99.90
18160;DHT22;9205;52.032;4.314;2022-09-03T03:43:58;18.00;99.90
18160;DHT22;9205;52.032;4.314;2022-09-03T03:46:30;17.90;99.90
18160;DHT22;9205;52.032;4.314;2022-09-03T03:48:58;17.90;99.90
18160;DHT22;9205;52.032;4.314;2022-09-03T03:51:26;17.90;99.90
18160;DHT22;9205;52.032;4.314;2022-09-03T03:53:57;17.90;99.90
18160;DHT22;9205;52.032;4.314;2022-09-03T03:56:25;17.90;99.90
18160;DHT22;9205;52.032;4.314;2022-09-03T03:58:54;17.90;99.90
18160;DHT22;9205;52.032;4.314;2022-09-03T04:01:23;17.90;99.90
18160;DHT22;9205;52.032;4.314;2022-09-03T04:03:54;17.90;99.90
18160;DHT22;9205;52.032;4.314;2022-09-03T04:06:21;18.00;99.90
18160;DHT22;9205;52.032;4.314;2022-09-03T04:08:49;17.90;99.90
18160;DHT22;9205;52.032;4.314;2022-09-03T04:11:20;17.90;99.90
18160;DHT22;9205;52.032;4.314;2022-09-03T04:13:50;17.90;99.90
18160;DHT22;9205;52.032;4.314;2022-09-03T04:16:20;17.90;99.90
18160;DHT22;9205;52.032;4.314;2022-09-03T04:18:49;17.90;99.90
18160;DHT22;9205;52.032;4.314;2022-09-03T04:21:19;17.90;99.90
18160;DHT22;9205;52.032;4.314;2022-09-03T04:23:51;17.90;99.90
18160;DHT22;9205;52.032;4.314;2022-09-03T04:26:22;17.90;99.90
18160;DHT22;9205;52.032;4.314;2022-09-03T04:28:50;17.90;99.90
18160;DHT22;9205;52.032;4.314;2022-09-03T04:31:19;17.90;99.90
18160;DHT22;9205;52.032;4.314;2022-09-03T04:33:47;17.80;99.90
18160;DHT22;9205;52.032;4.314;2022-09-03T04:36:17;17.80;99.90
18160;DHT22;9205;52.032;4.314;2022-09-03T04:38:47;17.80;99.90
18160;DHT22;9205;52.032;4.314;2022-09-03T04:41:17;17.80;99.90
18160;DHT22;9205;52.032;4.314;2022-09-03T04:43:46;17.70;99.90
18160;DHT22;9205;52.032;4.314;2022-09-03T04:46:14;17.70;99.90
18160;DHT22;9205;52.032;4.314;2022-09-03T04:48:42;17.70;99.90
18160;DHT22;9205;52.032;4.314;2022-09-03T04:51:11;17.70;99.90
18160;DHT22;9205;52.032;4.314;2022-09-03T04:53:41;17.70;99.90
18160;DHT22;9205;52.032;4.314;2022-09-03T04:56:13;17.70;99.90
18160;DHT22;9205;52.032;4.314;2022-09-03T04:58:42;17.70;99.90
18160;DHT22;9205;52.032;4.314;2022-09-03T05:01:14;17.70;99.90
18160;DHT22;9205;52.032;4.314;2022-09-03T05:03:42;17.60;99.90
18160;DHT22;9205;52.032;4.314;2022-09-03T05:06:10;17.60;99.90
18160;DHT22;9205;52.032;4.314;2022-09-03T05:08:42;17.50;99.90
18160;DHT22;9205;52.032;4.314;2022-09-03T05:11:10;17.50;99.90
18160;DHT22;9205;52.032;4.314;2022-09-03T05:13:37;17.50;99.90
18160;DHT22;9205;52.032;4.314;2022-09-03T05:16:06;17.40;99.90
18160;DHT22;9205;52.032;4.314;2022-09-03T05:18:36;17.40;99.90
18160;DHT22;9205;52.032;4.314;2022-09-03T05:21:06;17.40;99.90
18160;DHT22;9205;52.032;4.314;2022-09-03T05:23:35;17.40;99.90
18160;DHT22;9205;52.032;4.314;2022-09-03T05:26:05;17.40;99.90
18160;DHT22;9205;52.032;4.314;2022-09-03T05:28:36;17.40;99.90
18160;DHT22;9205;52.032;4.314;2022-09-03T05:31:06;17.40;99.90
18160;DHT22;9205;52.032;4.314;2022-09-03T05:33:37;17.40;99.90
18160;DHT22;9205;52.032;4.314;2022-09-03T05:36:08;17.40;99.90
18160;DHT22;9205;52.032;4.314;2022-09-03T05:38:37;17.30;99.90
18160;DHT22;9205;52.032;4.314;2022-09-03T05:41:06;17.30;99.90
18160;DHT22;9205;52.032;4.314;2022-09-03T05:43:35;17.30;99.90
18160;DHT22;9205;52.032;4.314;2022-09-03T05:46:04;17.30;99.90
18160;DHT22;9205;52.032;4.314;2022-09-03T05:48:36;17.30;99.90
18160;DHT22;9205;52.032;4.314;2022-09-03T05:51:06;17.30;99.90
18160;DHT22;9205;52.032;4.314;2022-09-03T05:53:36;17.30;99.90
18160;DHT22;9205;52.032;4.314;2022-09-03T05:56:06;17.40;99.90
18160;DHT22;9205;52.032;4.314;2022-09-03T05:58:37;17.40;99.90
18160;DHT22;9205;52.032;4.314;2022-09-03T06:01:11;17.30;99.90
18160;DHT22;9205;52.032;4.314;2022-09-03T06:03:42;17.30;99.90
18160;DHT22;9205;52.032;4.314;2022-09-03T06:06:11;17.40;99.90
18160;DHT22;9205;52.032;4.314;2022-09-03T06:08:39;17.30;99.90
18160;DHT22;9205;52.032;4.314;2022-09-03T06:11:09;17.40;99.90
18160;DHT22;9205;52.032;4.314;2022-09-03T06:13:37;17.40;99.90
18160;DHT22;9205;52.032;4.314;2022-09-03T06:16:07;17.40;99.90
18160;DHT22;9205;52.032;4.314;2022-09-03T06:18:35;17.40;99.90
18160;DHT22;9205;52.032;4.314;2022-09-03T06:21:05;17.40;99.90
18160;DHT22;9205;52.032;4.314;2022-09-03T06:23:35;17.40;99.90
18160;DHT22;9205;52.032;4.314;2022-09-03T06:26:04;17.40;99.90
18160;DHT22;9205;52.032;4.314;2022-09-03T06:28:35;17.40;99.90
18160;DHT22;9205;52.032;4.314;2022-09-03T06:31:05;17.50;99.90
18160;DHT22;9205;52.032;4.314;2022-09-03T06:33:35;17.50;99.90
18160;DHT22;9205;52.032;4.314;2022-09-03T06:36:06;17.50;99.90
18160;DHT22;9205;52.032;4.314;2022-09-03T06:38:35;17.60;99.90
18160;DHT22;9205;52.032;4.314;2022-09-03T06:41:04;17.60;99.90
18160;DHT22;9205;52.032;4.314;2022-09-03T06:43:34;17.60;99.90
18160;DHT22;9205;52.032;4.314;2022-09-03T06:46:04;17.70;99.90
18160;DHT22;9205;52.032;4.314;2022-09-03T06:48:34;17.70;99.90
18160;DHT22;9205;52.032;4.314;2022-09-03T06:51:08;17.70;99.90
18160;DHT22;9205;52.032;4.314;2022-09-03T06:53:38;17.70;99.90
18160;DHT22;9205;52.032;4.314;2022-09-03T06:56:08;17.80;99.90
18160;DHT22;9205;52.032;4.314;2022-09-03T06:58:38;17.80;99.90
18160;DHT22;9205;52.032;4.314;2022-09-03T07:01:09;17.90;99.90
18160;DHT22;9205;52.032;4.314;2022-09-03T07:03:39;17.90;99.90
18160;DHT22;9205;52.032;4.314;2022-09-03T07:06:10;17.90;99.90
18160;DHT22;9205;52.032;4.314;2022-09-03T07:08:39;18.00;99.90
18160;DHT22;9205;52.032;4.314;2022-09-03T07:11:09;18.00;99.90
18160;DHT22;9205;52.032;4.314;2022-09-03T07:13:39;18.00;99.90
18160;DHT22;9205;52.032;4.314;2022-09-03T07:16:09;18.10;99.90
18160;DHT22;9205;52.032;4.314;2022-09-03T07:18:38;18.10;99.90
18160;DHT22;9205;52.032;4.314;2022-09-03T07:21:10;18.10;99.90
18160;DHT22;9205;52.032;4.314;2022-09-03T07:23:39;18.20;99.90
18160;DHT22;9205;52.032;4.314;2022-09-03T07:26:08;18.20;99.90
18160;DHT22;9205;52.032;4.314;2022-09-03T07:28:37;18.30;99.90
18160;DHT22;9205;52.032;4.314;2022-09-03T07:31:08;18.30;99.90
18160;DHT22;9205;52.032;4.314;2022-09-03T07:33:37;18.30;99.90
18160;DHT22;9205;52.032;4.314;2022-09-03T07:36:07;18.40;99.90
18160;DHT22;9205;52.032;4.314;2022-09-03T07:38:40;18.40;99.90
18160;DHT22;9205;52.032;4.314;2022-09-03T07:41:11;18.40;99.90
18160;DHT22;9205;52.032;4.314;2022-09-03T07:43:41;18.50;99.90
18160;DHT22;9205;52.032;4.314;2022-09-03T07:46:12;18.50;99.90
18160;DHT22;9205;52.032;4.314;2022-09-03T07:48:41;18.60;99.90
18160;DHT22;9205;52.032;4.314;2022-09-03T07:51:10;18.60;99.90
18160;DHT22;9205;52.032;4.314;2022-09-03T07:53:37;18.70;99.90
18160;DHT22;9205;52.032;4.314;2022-09-03T07:56:06;18.70;99.90
18160;DHT22;9205;52.032;4.314;2022-09-03T07:58:36;18.80;99.90
18160;DHT22;9205;52.032;4.314;2022-09-03T08:01:07;18.80;99.90
18160;DHT22;9205;52.032;4.314;2022-09-03T08:03:36;18.80;99.90
18160;DHT22;9205;52.032;4.314;2022-09-03T08:06:05;18.90;99.90
18160;DHT22;9205;52.032;4.314;2022-09-03T08:08:35;19.00;99.90
18160;DHT22;9205;52.032;4.314;2022-09-03T08:11:04;19.00;99.90
18160;DHT22;9205;52.032;4.314;2022-09-03T08:13:37;19.10;99.90
18160;DHT22;9205;52.032;4.314;2022-09-03T08:16:06;19.20;99.90
18160;DHT22;9205;52.032;4.314;2022-09-03T08:18:35;19.20;99.90
18160;DHT22;9205;52.032;4.314;2022-09-03T08:21:08;19.30;99.90
18160;DHT22;9205;52.032;4.314;2022-09-03T08:23:41;19.40;99.90
18160;DHT22;9205;52.032;4.314;2022-09-03T08:26:09;19.40;99.90
18160;DHT22;9205;52.032;4.314;2022-09-03T08:28:38;19.50;99.90
18160;DHT22;9205;52.032;4.314;2022-09-03T08:31:08;19.60;99.90
18160;DHT22;9205;52.032;4.314;2022-09-03T08:33:37;19.70;99.90
18160;DHT22;9205;52.032;4.314;2022-09-03T08:36:09;19.80;99.90
18160;DHT22;9205;52.032;4.314;2022-09-03T08:38:39;19.80;99.90
18160;DHT22;9205;52.032;4.314;2022-09-03T08:41:11;19.90;99.90
18160;DHT22;9205;52.032;4.314;2022-09-03T08:44:03;20.00;99.90
18160;DHT22;9205;52.032;4.314;2022-09-03T08:46:49;20.00;99.90
18160;DHT22;9205;52.032;4.314;2022-09-03T08:49:23;20.10;99.90
18160;DHT22;9205;52.032;4.314;2022-09-03T08:51:55;20.20;99.90
18160;DHT22;9205;52.032;4.314;2022-09-03T08:54:30;20.30;99.90
18160;DHT22;9205;52.032;4.314;2022-09-03T08:57:00;20.40;99.90
18160;DHT22;9205;52.032;4.314;2022-09-03T08:59:29;20.40;99.90
18160;DHT22;9205;52.032;4.314;2022-09-03T09:02:03;20.40;99.90
18160;DHT22;9205;52.032;4.314;2022-09-03T09:04:52;20.50;99.90
18160;DHT22;9205;52.032;4.314;2022-09-03T09:07:29;20.50;99.90
18160;DHT22;9205;52.032;4.314;2022-09-03T09:10:11;20.60;99.90
18160;DHT22;9205;52.032;4.314;2022-09-03T09:12:48;20.60;99.90
18160;DHT22;9205;52.032;4.314;2022-09-03T09:15:36;20.80;99.90
18160;DHT22;9205;52.032;4.314;2022-09-03T09:18:13;20.80;99.90
18160;DHT22;9205;52.032;4.314;2022-09-03T09:20:50;20.80;99.90
18160;DHT22;9205;52.032;4.314;2022-09-03T09:23:26;20.90;99.90
18160;DHT22;9205;52.032;4.314;2022-09-03T09:25:59;21.00;99.90
18160;DHT22;9205;52.032;4.314;2022-09-03T09:28:34;21.00;99.90
18160;DHT22;9205;52.032;4.314;2022-09-03T09:31:04;21.10;99.90
18160;DHT22;9205;52.032;4.314;2022-09-03T09:33:37;21.20;99.90
18160;DHT22;9205;52.032;4.314;2022-09-03T09:36:07;21.30;99.90
18160;DHT22;9205;52.032;4.314;2022-09-03T09:38:38;21.40;99.90
18160;DHT22;9205;52.032;4.314;2022-09-03T09:41:11;21.40;99.90
18160;DHT22;9205;52.032;4.314;2022-09-03T09:43:41;21.50;99.90
18160;DHT22;9205;52.032;4.314;2022-09-03T09:46:13;21.60;99.90
18160;DHT22;9205;52.032;4.314;2022-09-03T09:48:49;21.60;99.90
18160;DHT22;9205;52.032;4.314;2022-09-03T09:51:19;21.70;99.90
18160;DHT22;9205;52.032;4.314;2022-09-03T09:53:59;21.70;99.90
18160;DHT22;9205;52.032;4.314;2022-09-03T09:56:29;21.80;99.90
18160;DHT22;9205;52.032;4.314;2022-09-03T09:59:05;21.80;99.90
18160;DHT22;9205;52.032;4.314;2022-09-03T10:01:33;21.90;99.90
18160;DHT22;9205;52.032;4.314;2022-09-03T10:04:09;22.00;99.90
18160;DHT22;9205;52.032;4.314;2022-09-03T10:06:38;22.10;99.90
18160;DHT22;9205;52.032;4.314;2022-09-03T10:09:23;22.10;99.90
18160;DHT22;9205;52.032;4.314;2022-09-03T10:12:03;22.10;99.90
18160;DHT22;9205;52.032;4.314;2022-09-03T10:14:44;22.20;99.90
18160;DHT22;9205;52.032;4.314;2022-09-03T10:17:20;22.30;99.90
18160;DHT22;9205;52.032;4.314;2022-09-03T10:19:57;22.30;99.90
18160;DHT22;9205;52.032;4.314;2022-09-03T10:22:51;22.40;99.90
18160;DHT22;9205;52.032;4.314;2022-09-03T10:25:24;22.40;99.90
18160;DHT22;9205;52.032;4.314;2022-09-03T10:27:55;22.60;99.90
18160;DHT22;9205;52.032;4.314;2022-09-03T10:30:33;22.60;99.90
18160;DHT22;9205;52.032;4.314;2022-09-03T10:33:17;22.70;99.90
18160;DHT22;9205;52.032;4.314;2022-09-03T10:35:55;22.80;99.90
18160;DHT22;9205;52.032;4.314;2022-09-03T10:38:33;22.90;99.90
18160;DHT22;9205;52.032;4.314;2022-09-03T10:41:14;23.00;99.90
18160;DHT22;9205;52.032;4.314;2022-09-03T10:44:22;23.00;99.90
18160;DHT22;9205;52.032;4.314;2022-09-03T10:47:08;23.10;99.90
18160;DHT22;9205;52.032;4.314;2022-09-03T10:49:52;23.10;99.90
18160;DHT22;9205;52.032;4.314;2022-09-03T10:52:29;23.10;99.90
18160;DHT22;9205;52.032;4.314;2022-09-03T10:55:13;23.20;99.90
18160;DHT22;9205;52.032;4.314;2022-09-03T10:57:56;23.20;99.90
18160;DHT22;9205;52.032;4.314;2022-09-03T11:00:38;23.30;99.90
18160;DHT22;9205;52.032;4.314;2022-09-03T11:06:17;23.60;99.90
18160;DHT22;9205;52.032;4.314;2022-09-03T11:08:52;24.40;99.90
18160;DHT22;9205;52.032;4.314;2022-09-03T11:11:30;25.70;99.90
18160;DHT22;9205;52.032;4.314;2022-09-03T11:14:07;26.70;99.90
18160;DHT22;9205;52.032;4.314;2022-09-03T11:16:40;27.60;99.90
18160;DHT22;9205;52.032;4.314;2022-09-03T11:19:15;27.80;99.90
18160;DHT22;9205;52.032;4.314;2022-09-03T11:21:44;27.80;99.90
18160;DHT22;9205;52.032;4.314;2022-09-03T11:24:17;27.90;99.90
18160;DHT22;9205;52.032;4.314;2022-09-03T11:26:51;27.60;99.90
18160;DHT22;9205;52.032;4.314;2022-09-03T11:29:30;26.90;99.90
18160;DHT22;9205;52.032;4.314;2022-09-03T11:32:04;27.00;99.90
18160;DHT22;9205;52.032;4.314;2022-09-03T11:34:44;27.00;99.90
18160;DHT22;9205;52.032;4.314;2022-09-03T11:37:19;26.70;99.90
18160;DHT22;9205;52.032;4.314;2022-09-03T11:39:55;26.80;99.90
18160;DHT22;9205;52.032;4.314;2022-09-03T11:42:31;27.00;98.90
18160;DHT22;9205;52.032;4.314;2022-09-03T11:45:20;27.00;94.90
18160;DHT22;9205;52.032;4.314;2022-09-03T11:48:00;26.90;93.60
18160;DHT22;9205;52.032;4.314;2022-09-03T11:50:30;26.80;91.30
18160;DHT22;9205;52.032;4.314;2022-09-03T11:53:08;26.50;89.70
18160;DHT22;9205;52.032;4.314;2022-09-03T11:55:51;26.40;86.80
18160;DHT22;9205;52.032;4.314;2022-09-03T11:58:24;26.50;88.30
18160;DHT22;9205;52.032;4.314;2022-09-03T12:00:56;26.50;87.00
18160;DHT22;9205;52.032;4.314;2022-09-03T12:03:29;26.70;86.40
18160;DHT22;9205;52.032;4.314;2022-09-03T12:06:19;26.70;85.90
18160;DHT22;9205;52.032;4.314;2022-09-03T12:09:24;26.80;84.10
18160;DHT22;9205;52.032;4.314;2022-09-03T12:12:11;26.70;81.30
18160;DHT22;9205;52.032;4.314;2022-09-03T12:14:52;26.50;73.70
18160;DHT22;9205;52.032;4.314;2022-09-03T12:17:29;26.30;74.10
18160;DHT22;9205;52.032;4.314;2022-09-03T12:20:10;26.20;74.10
18160;DHT22;9205;52.032;4.314;2022-09-03T12:22:40;25.90;66.00
18160;DHT22;9205;52.032;4.314;2022-09-03T12:25:09;25.90;67.30
18160;DHT22;9205;52.032;4.314;2022-09-03T12:27:37;25.90;67.70
18160;DHT22;9205;52.032;4.314;2022-09-03T12:30:15;25.80;62.70
18160;DHT22;9205;52.032;4.314;2022-09-03T12:32:43;25.80;62.90
18160;DHT22;9205;52.032;4.314;2022-09-03T12:35:15;25.90;62.70
18160;DHT22;9205;52.032;4.314;2022-09-03T12:37:45;26.10;62.70
18160;DHT22;9205;52.032;4.314;2022-09-03T12:40:20;26.20;63.30
18160;DHT22;9205;52.032;4.314;2022-09-03T12:42:49;26.30;62.50
18160;DHT22;9205;52.032;4.314;2022-09-03T12:45:18;26.30;61.30
18160;DHT22;9205;52.032;4.314;2022-09-03T12:47:47;26.20;58.60
18160;DHT22;9205;52.032;4.314;2022-09-03T12:50:18;26.30;58.50
18160;DHT22;9205;52.032;4.314;2022-09-03T12:52:47;26.30;55.80
18160;DHT22;9205;52.032;4.314;2022-09-03T12:55:27;26.50;54.20
18160;DHT22;9205;52.032;4.314;2022-09-03T12:58:04;26.40;50.90
18160;DHT22;9205;52.032;4.314;2022-09-03T13:00:38;26.40;51.30
18160;DHT22;9205;52.032;4.314;2022-09-03T13:03:14;26.40;51.50
18160;DHT22;9205;52.032;4.314;2022-09-03T13:05:46;26.30;45.80
18160;DHT22;9205;52.032;4.314;2022-09-03T13:08:21;26.30;46.80
18160;DHT22;9205;52.032;4.314;2022-09-03T13:10:52;26.20;44.60
18160;DHT22;9205;52.032;4.314;2022-09-03T13:13:23;26.10;43.70
18160;DHT22;9205;52.032;4.314;2022-09-03T13:19:05;26.50;45.80
18160;DHT22;9205;52.032;4.314;2022-09-03T13:21:49;26.60;43.30
18160;DHT22;9205;52.032;4.314;2022-09-03T13:24:37;26.70;41.90
18160;DHT22;9205;52.032;4.314;2022-09-03T13:27:17;26.40;39.70
18160;DHT22;9205;52.032;4.314;2022-09-03T13:30:04;26.40;38.50
18160;DHT22;9205;52.032;4.314;2022-09-03T13:32:45;26.40;35.20
18160;DHT22;9205;52.032;4.314;2022-09-03T13:35:25;26.50;35.40
18160;DHT22;9205;52.032;4.314;2022-09-03T13:38:06;26.50;32.60
18160;DHT22;9205;52.032;4.314;2022-09-03T13:40:47;26.50;32.10
18160;DHT22;9205;52.032;4.314;2022-09-03T13:43:27;26.70;32.80
18160;DHT22;9205;52.032;4.314;2022-09-03T13:46:05;26.90;32.40
18160;DHT22;9205;52.032;4.314;2022-09-03T13:48:35;27.00;32.70
18160;DHT22;9205;52.032;4.314;2022-09-03T13:51:25;27.10;30.00
18160;DHT22;9205;52.032;4.314;2022-09-03T13:54:04;27.20;29.50
18160;DHT22;9205;52.032;4.314;2022-09-03T13:56:50;27.10;29.10
18160;DHT22;9205;52.032;4.314;2022-09-03T13:59:33;27.10;27.50
18160;DHT22;9205;52.032;4.314;2022-09-03T14:02:15;27.30;27.60
18160;DHT22;9205;52.032;4.314;2022-09-03T14:04:57;27.20;25.10
18160;DHT22;9205;52.032;4.314;2022-09-03T14:07:43;27.40;25.10
18160;DHT22;9205;52.032;4.314;2022-09-03T14:10:26;27.50;25.50
18160;DHT22;9205;52.032;4.314;2022-09-03T14:13:07;27.50;22.60
18160;DHT22;9205;52.032;4.314;2022-09-03T14:15:43;27.50;22.10
18160;DHT22;9205;52.032;4.314;2022-09-03T14:18:27;27.20;18.30
18160;DHT22;9205;52.032;4.314;2022-09-03T14:21:07;27.30;17.90
18160;DHT22;9205;52.032;4.314;2022-09-03T14:23:44;27.60;19.40
18160;DHT22;9205;52.032;4.314;2022-09-03T14:26:18;27.50;16.80
18160;DHT22;9205;52.032;4.314;2022-09-03T14:28:57;27.50;17.10
18160;DHT22;9205;52.032;4.314;2022-09-03T14:31:41;27.60;16.20
18160;DHT22;9205;52.032;4.314;2022-09-03T14:34:54;27.30;12.00
18160;DHT22;9205;52.032;4.314;2022-09-03T14:37:48;27.20;9.20
18160;DHT22;9205;52.032;4.314;2022-09-03T14:40:29;27.00;6.80
18160;DHT22;9205;52.032;4.314;2022-09-03T14:43:16;27.00;4.20
18160;DHT22;9205;52.032;4.314;2022-09-03T14:46:20;27.00;5.00
18160;DHT22;9205;52.032;4.314;2022-09-03T14:49:20;27.00;3.10
18160;DHT22;9205;52.032;4.314;2022-09-03T14:52:18;27.00;2.30
18160;DHT22;9205;52.032;4.314;2022-09-03T14:55:16;26.90;1.60
18160;DHT22;9205;52.032;4.314;2022-09-03T14:58:11;26.80;1.00
18160;DHT22;9205;52.032;4.314;2022-09-03T15:00:59;26.80;1.00
18160;DHT22;9205;52.032;4.314;2022-09-03T15:03:58;26.70;1.00
18160;DHT22;9205;52.032;4.314;2022-09-03T15:06:50;26.60;1.00
18160;DHT22;9205;52.032;4.314;2022-09-03T15:09:35;26.70;1.00
18160;DHT22;9205;52.032;4.314;2022-09-03T15:12:17;26.60;1.00
18160;DHT22;9205;52.032;4.314;2022-09-03T15:14:53;26.50;1.00
18160;DHT22;9205;52.032;4.314;2022-09-03T15:17:36;26.50;1.00
18160;DHT22;9205;52.032;4.314;2022-09-03T15:20:20;26.50;1.00
18160;DHT22;9205;52.032;4.314;2022-09-03T15:23:08;26.60;1.00
18160;DHT22;9205;52.032;4.314;2022-09-03T15:26:23;26.60;1.00
18160;DHT22;9205;52.032;4.314;2022-09-03T15:29:13;26.50;1.00
18160;DHT22;9205;52.032;4.314;2022-09-03T15:31:53;26.40;1.00
18160;DHT22;9205;52.032;4.314;2022-09-03T15:34:58;26.40;1.00
18160;DHT22;9205;52.032;4.314;2022-09-03T15:37:39;26.40;1.00
18160;DHT22;9205;52.032;4.314;2022-09-03T15:40:22;26.40;1.00
18160;DHT22;9205;52.032;4.314;2022-09-03T15:42:59;26.30;1.00
18160;DHT22;9205;52.032;4.314;2022-09-03T15:45:38;26.30;1.00
18160;DHT22;9205;52.032;4.314;2022-09-03T15:48:22;26.30;1.00
18160;DHT22;9205;52.032;4.314;2022-09-03T15:51:15;26.30;1.00
18160;DHT22;9205;52.032;4.314;2022-09-03T15:53:50;26.20;1.00
18160;DHT22;9205;52.032;4.314;2022-09-03T15:56:26;26.20;1.00
18160;DHT22;9205;52.032;4.314;2022-09-03T15:59:02;26.30;1.00
18160;DHT22;9205;52.032;4.314;2022-09-03T16:01:42;26.30;1.00
18160;DHT22;9205;52.032;4.314;2022-09-03T16:04:38;26.30;1.00
18160;DHT22;9205;52.032;4.314;2022-09-03T16:07:23;26.30;1.00
18160;DHT22;9205;52.032;4.314;2022-09-03T16:09:59;26.30;1.00
18160;DHT22;9205;52.032;4.314;2022-09-03T16:12:38;26.40;1.00
18160;DHT22;9205;52.032;4.314;2022-09-03T16:15:13;26.40;1.00
18160;DHT22;9205;52.032;4.314;2022-09-03T16:17:53;26.30;1.00
18160;DHT22;9205;52.032;4.314;2022-09-03T16:20:32;26.30;1.00
18160;DHT22;9205;52.032;4.314;2022-09-03T16:23:09;26.30;1.00
18160;DHT22;9205;52.032;4.314;2022-09-03T16:25:47;26.30;1.00
18160;DHT22;9205;52.032;4.314;2022-09-03T16:28:19;26.30;1.00
18160;DHT22;9205;52.032;4.314;2022-09-03T16:31:03;26.20;1.00
18160;DHT22;9205;52.032;4.314;2022-09-03T16:33:44;26.20;1.00
18160;DHT22;9205;52.032;4.314;2022-09-03T16:36:28;26.20;1.00
18160;DHT22;9205;52.032;4.314;2022-09-03T16:39:09;26.10;1.00
18160;DHT22;9205;52.032;4.314;2022-09-03T16:41:49;26.10;1.00
18160;DHT22;9205;52.032;4.314;2022-09-03T16:44:38;26.00;1.00
18160;DHT22;9205;52.032;4.314;2022-09-03T16:47:23;25.90;1.00
18160;DHT22;9205;52.032;4.314;2022-09-03T16:50:08;25.90;1.00
18160;DHT22;9205;52.032;4.314;2022-09-03T16:52:59;25.90;1.00